createdAt,value
2018-12-05T00:00:40.004Z,72.90
2018-12-05T00:01:39.998Z,56.50
2018-12-05T00:02:39.983Z,35.60
2018-12-05T00:03:39.973Z,37.20
2018-12-05T00:04:40.002Z,58.90
2018-12-05T00:05:39.954Z,60.60
2018-12-05T00:06:39.941Z,58.30
2018-12-05T00:07:39.931Z,39.50
2018-12-05T00:08:39.918Z,36.40
2018-12-05T00:09:39.908Z,36.00
2018-12-05T00:10:39.940Z,39.60
2018-12-05T00:11:39.890Z,33.80
2018-12-05T00:12:39.876Z,28.40
2018-12-05T00:13:39.867Z,29.40
2018-12-05T00:14:39.854Z,26.50
2018-12-05T00:15:39.944Z,29.90
2018-12-05T00:16:39.872Z,31.00
2018-12-05T00:17:39.873Z,27.50
2018-12-05T00:18:39.811Z,32.70
2018-12-05T00:19:39.801Z,37.40
2018-12-05T00:20:39.792Z,35.70
2018-12-05T00:21:39.779Z,40.90
2018-12-05T00:22:39.769Z,40.00
2018-12-05T00:23:39.797Z,41.00
2018-12-05T00:24:39.747Z,53.30
2018-12-05T00:25:39.736Z,44.10
2018-12-05T00:26:39.730Z,45.80
2018-12-05T00:27:39.756Z,45.20
2018-12-05T00:28:39.706Z,52.00
2018-12-05T00:29:39.733Z,53.10
2018-12-05T00:30:39.719Z,60.50
2018-12-05T00:31:39.670Z,54.60
2018-12-05T00:32:39.661Z,65.40
2018-12-05T00:33:39.662Z,72.40
2018-12-05T00:34:39.644Z,70.40
2018-12-05T00:35:39.672Z,58.90
2018-12-05T00:36:39.615Z,46.10
2018-12-05T00:37:39.648Z,49.30
2018-12-05T00:38:39.596Z,51.80
2018-12-05T00:39:39.585Z,53.90
2018-12-05T00:40:39.575Z,53.10
2018-12-05T00:41:39.566Z,52.40
2018-12-05T00:42:39.553Z,62.10
2018-12-05T00:43:39.582Z,52.50
2018-12-05T00:44:39.530Z,43.60
2018-12-05T00:45:39.531Z,58.20
2018-12-05T00:46:39.510Z,48.40
2018-12-05T00:47:39.542Z,59.50
2018-12-05T00:48:39.487Z,55.50
2018-12-05T00:49:39.476Z,50.60
2018-12-05T00:50:39.495Z,41.60
2018-12-05T00:51:39.458Z,58.20
2018-12-05T00:52:39.507Z,45.70
2018-12-05T00:53:39.433Z,46.00
2018-12-05T00:54:39.423Z,53.60
2018-12-05T00:55:39.413Z,54.00
2018-12-05T00:56:39.406Z,48.60
2018-12-05T00:57:39.391Z,44.10
2018-12-05T00:58:39.420Z,57.60
2018-12-05T00:59:39.371Z,48.40
2018-12-05T01:00:39.362Z,49.30
2018-12-05T01:01:39.347Z,52.60
2018-12-05T01:02:39.377Z,49.50
2018-12-05T01:03:39.334Z,45.00
2018-12-05T01:04:39.315Z,64.30
2018-12-05T01:05:39.305Z,70.00
2018-12-05T01:06:39.339Z,60.10
2018-12-05T01:07:39.283Z,48.00
2018-12-05T01:08:39.277Z,48.00
2018-12-05T01:09:39.275Z,40.80
2018-12-05T01:10:39.254Z,36.50
2018-12-05T01:11:39.243Z,41.90
2018-12-05T01:12:39.271Z,35.90
2018-12-05T01:13:39.219Z,35.60
2018-12-05T01:14:39.208Z,36.50
2018-12-05T01:15:39.200Z,42.00
2018-12-05T01:16:39.186Z,39.60
2018-12-05T01:17:39.180Z,42.20
2018-12-05T01:18:39.213Z,43.00
2018-12-05T01:19:39.154Z,42.80
2018-12-05T01:20:39.145Z,38.50
2018-12-05T01:21:39.137Z,39.60
2018-12-05T01:22:39.122Z,43.90
2018-12-05T01:23:39.112Z,45.10
2018-12-05T01:24:39.140Z,40.50
2018-12-05T01:25:39.129Z,41.20
2018-12-05T01:26:39.081Z,54.60
2018-12-05T01:27:39.070Z,43.30
2018-12-05T01:28:39.057Z,45.30
2018-12-05T01:29:39.318Z,47.90
2018-12-05T01:30:39.035Z,44.00
2018-12-05T01:31:39.027Z,44.20
2018-12-05T01:32:39.015Z,52.20
2018-12-05T01:33:39.006Z,44.70
2018-12-05T01:34:38.994Z,44.80
2018-12-05T01:35:39.021Z,40.30
2018-12-05T01:36:38.973Z,40.20
2018-12-05T01:37:39.009Z,42.10
2018-12-05T01:38:38.957Z,52.20
2018-12-05T01:39:38.940Z,46.40
2018-12-05T01:40:38.929Z,92.80
2018-12-05T01:41:38.920Z,89.60
2018-12-05T01:42:38.949Z,83.10
2018-12-05T01:43:38.901Z,67.00
2018-12-05T01:44:38.887Z,50.70
2018-12-05T01:45:38.921Z,61.70
2018-12-05T01:46:38.864Z,73.90
2018-12-05T01:47:38.854Z,96.20
2018-12-05T01:48:38.843Z,93.30
2018-12-05T01:49:38.834Z,72.50
2018-12-05T01:50:38.873Z,70.30
2018-12-05T01:51:38.811Z,68.60
2018-12-05T01:52:38.802Z,94.30
2018-12-05T01:53:38.790Z,71.00
2018-12-05T01:54:38.783Z,75.40
2018-12-05T01:55:38.772Z,87.80
2018-12-05T01:56:38.800Z,69.90
2018-12-05T01:57:38.746Z,70.10
2018-12-05T01:58:38.736Z,112.10
2018-12-05T01:59:38.726Z,68.70
2018-12-05T02:00:38.715Z,73.60
2018-12-05T02:01:38.746Z,79.70
2018-12-05T02:02:38.693Z,97.00
2018-12-05T02:03:38.681Z,92.80
2018-12-05T02:04:38.670Z,99.30
2018-12-05T02:05:38.661Z,98.80
2018-12-05T02:06:38.659Z,98.90
2018-12-05T02:07:38.683Z,71.00
2018-12-05T02:08:38.630Z,65.70
2018-12-05T02:09:38.617Z,49.60
2018-12-05T02:10:38.607Z,52.30
2018-12-05T02:11:38.602Z,41.30
2018-12-05T02:12:38.627Z,63.00
2018-12-05T02:13:38.575Z,44.80
2018-12-05T02:14:38.566Z,48.30
2018-12-05T02:15:38.559Z,45.40
2018-12-05T02:16:38.583Z,54.80
2018-12-05T02:17:38.533Z,47.80
2018-12-05T02:18:38.521Z,44.10
2018-12-05T02:19:38.556Z,37.80
2018-12-05T02:20:38.539Z,39.20
2018-12-05T02:21:38.490Z,33.80
2018-12-05T02:22:38.517Z,33.90
2018-12-05T02:23:38.469Z,31.00
2018-12-05T02:24:38.499Z,32.60
2018-12-05T02:25:38.446Z,39.30
2018-12-05T02:26:38.438Z,32.40
2018-12-05T02:27:38.432Z,33.80
2018-12-05T02:28:38.413Z,39.60
2018-12-05T02:29:38.446Z,41.40
2018-12-05T02:30:38.432Z,43.10
2018-12-05T02:31:38.383Z,31.70
2018-12-05T02:32:38.372Z,41.00
2018-12-05T02:33:38.361Z,51.00
2018-12-05T02:34:38.394Z,45.30
2018-12-05T02:35:38.341Z,62.90
2018-12-05T02:36:38.329Z,54.90
2018-12-05T02:37:38.319Z,48.00
2018-12-05T02:38:38.308Z,77.60
2018-12-05T02:39:38.297Z,67.40
2018-12-05T02:40:38.327Z,66.00
2018-12-05T02:41:38.275Z,66.40
2018-12-05T02:42:38.263Z,90.60
2018-12-05T02:43:38.263Z,91.60
2018-12-05T02:44:38.242Z,64.20
2018-12-05T02:45:38.231Z,53.80
2018-12-05T02:46:38.263Z,46.40
2018-12-05T02:47:38.213Z,36.30
2018-12-05T02:48:38.243Z,38.70
2018-12-05T02:49:38.189Z,67.60
2018-12-05T02:50:38.178Z,52.30
2018-12-05T02:51:38.168Z,73.20
2018-12-05T02:52:38.157Z,83.20
2018-12-05T02:53:38.156Z,52.70
2018-12-05T02:54:38.175Z,43.40
2018-12-05T02:55:38.126Z,51.50
2018-12-05T02:56:38.112Z,65.90
2018-12-05T02:57:38.148Z,68.90
2018-12-05T02:58:38.094Z,47.50
2018-12-05T02:59:38.123Z,46.80
2018-12-05T03:00:38.069Z,72.10
2018-12-05T03:01:38.061Z,59.60
2018-12-05T03:02:38.052Z,65.80
2018-12-05T03:03:38.037Z,65.50
2018-12-05T03:04:38.026Z,62.20
2018-12-05T03:05:38.059Z,87.10
2018-12-05T03:06:38.007Z,68.90
2018-12-05T03:07:37.996Z,75.40
2018-12-05T03:08:37.985Z,67.50
2018-12-05T03:09:37.979Z,87.60
2018-12-05T03:10:37.963Z,56.30
2018-12-05T03:11:37.993Z,77.00
2018-12-05T03:12:37.944Z,80.70
2018-12-05T03:13:37.931Z,78.50
2018-12-05T03:14:37.919Z,67.30
2018-12-05T03:15:37.909Z,65.70
2018-12-05T03:16:37.899Z,48.80
2018-12-05T03:17:37.929Z,76.40
2018-12-05T03:18:37.876Z,76.30
2018-12-05T03:19:37.864Z,42.70
2018-12-05T03:20:37.855Z,50.80
2018-12-05T03:21:37.843Z,43.60
2018-12-05T03:22:37.834Z,43.70
2018-12-05T03:23:37.863Z,63.60
2018-12-05T03:24:37.811Z,63.50
2018-12-05T03:25:37.802Z,56.50
2018-12-05T03:26:37.842Z,63.00
2018-12-05T03:27:37.778Z,64.20
2018-12-05T03:28:37.768Z,59.30
2018-12-05T03:29:37.756Z,54.80
2018-12-05T03:30:37.760Z,50.50
2018-12-05T03:31:37.787Z,49.80
2018-12-05T03:32:37.729Z,39.30
2018-12-05T03:33:37.727Z,52.00
2018-12-05T03:34:37.705Z,51.20
2018-12-05T03:35:37.692Z,37.70
2018-12-05T03:36:37.685Z,50.40
2018-12-05T03:37:37.714Z,47.10
2018-12-05T03:38:37.660Z,46.90
2018-12-05T03:39:37.694Z,39.50
2018-12-05T03:40:37.643Z,40.80
2018-12-05T03:41:37.629Z,39.40
2018-12-05T03:42:37.617Z,42.50
2018-12-05T03:43:37.608Z,34.50
2018-12-05T03:44:37.598Z,32.50
2018-12-05T03:45:37.628Z,32.00
2018-12-05T03:46:37.616Z,27.50
2018-12-05T03:47:37.567Z,30.90
2018-12-05T03:48:37.558Z,38.00
2018-12-05T03:49:37.545Z,29.70
2018-12-05T03:50:37.531Z,31.60
2018-12-05T03:51:37.520Z,33.90
2018-12-05T03:52:37.555Z,27.00
2018-12-05T03:53:37.499Z,24.80
2018-12-05T03:54:37.489Z,31.60
2018-12-05T03:55:37.482Z,26.50
2018-12-05T03:56:37.467Z,26.20
2018-12-05T03:57:37.456Z,26.10
2018-12-05T03:58:37.488Z,35.60
2018-12-05T03:59:37.434Z,46.90
2018-12-05T04:00:37.427Z,36.90
2018-12-05T04:01:37.415Z,32.80
2018-12-05T04:02:37.404Z,39.50
2018-12-05T04:03:37.391Z,30.60
2018-12-05T04:04:37.421Z,34.20
2018-12-05T04:05:37.372Z,55.60
2018-12-05T04:06:37.361Z,45.30
2018-12-05T04:07:37.355Z,47.80
2018-12-05T04:08:37.342Z,39.90
2018-12-05T04:09:37.380Z,44.90
2018-12-05T04:10:37.333Z,54.90
2018-12-05T04:11:37.315Z,42.10
2018-12-05T04:12:40.819Z,50.40
2018-12-05T04:13:37.326Z,37.80
2018-12-05T04:14:37.273Z,34.50
2018-12-05T04:15:37.267Z,31.00
2018-12-05T04:16:37.298Z,47.20
2018-12-05T04:17:37.242Z,32.20
2018-12-05T04:18:37.235Z,36.50
2018-12-05T04:19:37.222Z,31.50
2018-12-05T04:20:37.208Z,40.70
2018-12-05T04:21:37.253Z,46.40
2018-12-05T04:22:37.188Z,28.30
2018-12-05T04:23:37.180Z,28.80
2018-12-05T04:24:37.169Z,29.20
2018-12-05T04:25:37.159Z,32.20
2018-12-05T04:26:37.188Z,55.60
2018-12-05T04:27:37.136Z,41.80
2018-12-05T04:28:37.123Z,43.90
2018-12-05T04:29:37.112Z,42.00
2018-12-05T04:30:37.105Z,43.10
2018-12-05T04:31:37.095Z,51.50
2018-12-05T04:32:37.123Z,42.40
2018-12-05T04:33:37.070Z,51.60
2018-12-05T04:34:37.059Z,45.20
2018-12-05T04:35:37.050Z,44.60
2018-12-05T04:36:37.039Z,53.30
2018-12-05T04:37:37.028Z,44.90
2018-12-05T04:38:37.059Z,48.30
2018-12-05T04:39:37.006Z,63.90
2018-12-05T04:40:36.995Z,67.80
2018-12-05T04:41:36.982Z,50.00
2018-12-05T04:42:36.974Z,50.80
2018-12-05T04:43:36.961Z,52.20
2018-12-05T04:44:36.990Z,44.10
2018-12-05T04:45:36.941Z,45.20
2018-12-05T04:46:36.932Z,49.20
2018-12-05T04:47:36.920Z,46.30
2018-12-05T04:48:36.947Z,52.00
2018-12-05T04:49:36.896Z,45.60
2018-12-05T04:50:36.885Z,42.50
2018-12-05T04:51:36.916Z,36.90
2018-12-05T04:52:36.863Z,41.50
2018-12-05T04:53:36.852Z,38.70
2018-12-05T04:54:36.842Z,37.00
2018-12-05T04:55:36.830Z,40.90
2018-12-05T04:56:36.821Z,34.90
2018-12-05T04:57:36.853Z,32.30
2018-12-05T04:58:36.802Z,34.20
2018-12-05T04:59:36.826Z,37.40
2018-12-05T05:00:36.778Z,34.50
2018-12-05T05:01:36.765Z,33.40
2018-12-05T05:02:36.759Z,33.30
2018-12-05T05:03:36.747Z,34.80
2018-12-05T05:04:36.776Z,35.70
2018-12-05T05:05:36.724Z,35.80
2018-12-05T05:06:41.588Z,37.50
2018-12-05T05:07:37.700Z,33.10
2018-12-05T05:08:36.691Z,32.20
2018-12-05T05:09:36.678Z,34.90
2018-12-05T05:10:36.710Z,42.00
2018-12-05T05:11:36.658Z,47.40
2018-12-05T05:12:36.689Z,40.20
2018-12-05T05:13:36.637Z,54.60
2018-12-05T05:14:36.629Z,49.60
2018-12-05T05:15:36.616Z,53.50
2018-12-05T05:16:36.604Z,48.20
2018-12-05T05:17:36.597Z,43.00
2018-12-05T05:18:36.621Z,46.60
2018-12-05T05:19:36.571Z,44.20
2018-12-05T05:20:36.564Z,45.40
2018-12-05T05:21:36.577Z,47.00
2018-12-05T05:22:36.542Z,43.50
2018-12-05T05:23:36.532Z,41.80
2018-12-05T05:24:36.562Z,41.40
2018-12-05T05:25:36.506Z,47.30
2018-12-05T05:26:36.494Z,38.60
2018-12-05T05:27:36.485Z,38.60
2018-12-05T05:28:36.473Z,42.10
2018-12-05T05:29:36.507Z,40.70
2018-12-05T05:30:36.473Z,37.60
2018-12-05T05:31:36.479Z,39.70
2018-12-05T05:32:36.430Z,36.50
2018-12-05T05:33:36.419Z,36.40
2018-12-05T05:34:36.408Z,37.10
2018-12-05T05:35:36.399Z,41.30
2018-12-05T05:36:36.428Z,39.50
2018-12-05T05:37:36.377Z,36.80
2018-12-05T05:38:36.372Z,37.60
2018-12-05T05:39:36.354Z,36.80
2018-12-05T05:40:36.344Z,38.40
2018-12-05T05:41:36.332Z,39.70
2018-12-05T05:42:36.373Z,39.30
2018-12-05T05:43:36.316Z,39.60
2018-12-05T05:44:36.301Z,37.70
2018-12-05T05:45:36.291Z,37.90
2018-12-05T05:46:36.278Z,36.50
2018-12-05T05:47:36.267Z,35.50
2018-12-05T05:48:36.301Z,38.60
2018-12-05T05:49:36.247Z,35.70
2018-12-05T05:50:36.236Z,34.20
2018-12-05T05:51:36.225Z,33.20
2018-12-05T05:52:36.214Z,32.80
2018-12-05T05:53:36.203Z,36.90
2018-12-05T05:54:36.232Z,34.00
2018-12-05T05:55:36.185Z,31.40
2018-12-05T05:56:36.187Z,33.00
2018-12-05T05:57:36.160Z,31.60
2018-12-05T05:58:36.149Z,36.10
2018-12-05T05:59:36.182Z,33.50
2018-12-05T06:00:36.127Z,32.90
2018-12-05T06:01:36.118Z,30.40
2018-12-05T06:02:36.109Z,30.70
2018-12-05T06:03:36.113Z,29.20
2018-12-05T06:04:36.126Z,27.70
2018-12-05T06:05:36.082Z,31.20
2018-12-05T06:06:36.065Z,31.00
2018-12-05T06:07:36.057Z,29.40
2018-12-05T06:08:36.049Z,27.70
2018-12-05T06:09:36.072Z,26.60
2018-12-05T06:10:36.065Z,29.10
2018-12-05T06:11:36.010Z,29.30
2018-12-05T06:12:36.435Z,29.10
2018-12-05T06:13:35.989Z,26.40
2018-12-05T06:14:35.987Z,30.10
2018-12-05T06:15:35.973Z,26.10
2018-12-05T06:16:35.993Z,30.00
2018-12-05T06:17:35.954Z,28.10
2018-12-05T06:18:35.979Z,27.40
2018-12-05T06:19:35.923Z,26.90
2018-12-05T06:20:35.914Z,27.30
2018-12-05T06:21:35.953Z,26.20
2018-12-05T06:22:35.978Z,25.70
2018-12-05T06:23:35.923Z,26.60
2018-12-05T06:24:35.876Z,25.60
2018-12-05T06:25:35.861Z,20.80
2018-12-05T06:26:35.852Z,23.10
2018-12-05T06:27:35.849Z,24.70
2018-12-05T06:28:35.828Z,24.10
2018-12-05T06:29:35.863Z,23.40
2018-12-05T06:30:35.807Z,23.80
2018-12-05T06:31:35.800Z,26.20
2018-12-05T06:32:35.810Z,21.80
2018-12-05T06:33:35.779Z,21.50
2018-12-05T06:34:35.762Z,22.60
2018-12-05T06:35:35.803Z,23.10
2018-12-05T06:36:35.750Z,22.90
2018-12-05T06:37:35.774Z,19.90
2018-12-05T06:38:35.726Z,24.60
2018-12-05T06:39:35.724Z,26.30
2018-12-05T06:40:35.709Z,24.70
2018-12-05T06:41:35.695Z,24.60
2018-12-05T06:42:35.681Z,24.10
2018-12-05T06:43:35.710Z,22.30
2018-12-05T06:44:35.654Z,24.80
2018-12-05T06:45:35.649Z,27.40
2018-12-05T06:46:35.642Z,24.10
2018-12-05T06:47:35.636Z,24.60
2018-12-05T06:48:35.651Z,22.70
2018-12-05T06:49:35.602Z,23.80
2018-12-05T06:50:35.598Z,23.40
2018-12-05T06:51:35.585Z,25.80
2018-12-05T06:52:35.570Z,23.20
2018-12-05T06:53:35.687Z,25.30
2018-12-05T06:54:35.626Z,20.40
2018-12-05T06:55:39.064Z,20.50
2018-12-05T06:56:35.527Z,22.80
2018-12-05T06:57:35.523Z,22.00
2018-12-05T06:58:35.565Z,21.80
2018-12-05T06:59:35.494Z,21.80
2018-12-05T07:00:35.489Z,19.00
2018-12-05T07:01:35.638Z,20.70
2018-12-05T07:02:35.461Z,19.90
2018-12-05T07:03:35.452Z,19.90
2018-12-05T07:04:35.442Z,18.60
2018-12-05T07:05:35.441Z,18.40
2018-12-05T07:06:35.477Z,20.80
2018-12-05T07:07:35.502Z,21.20
2018-12-05T07:08:35.407Z,21.30
2018-12-05T07:09:35.399Z,19.80
2018-12-05T07:10:35.377Z,19.20
2018-12-05T07:11:35.369Z,22.50
2018-12-05T07:12:35.354Z,19.60
2018-12-05T07:13:35.520Z,20.40
2018-12-05T07:14:35.333Z,22.60
2018-12-05T07:15:35.324Z,24.10
2018-12-05T07:16:35.317Z,21.00
2018-12-05T07:17:35.301Z,18.30
2018-12-05T07:18:35.297Z,19.00
2018-12-05T07:19:35.320Z,19.50
2018-12-05T07:20:35.277Z,19.40
2018-12-05T07:21:35.317Z,19.60
2018-12-05T07:22:35.247Z,19.10
2018-12-05T07:23:35.240Z,20.40
2018-12-05T07:24:35.226Z,21.80
2018-12-05T07:25:35.221Z,20.10
2018-12-05T07:26:35.246Z,19.00
2018-12-05T07:27:35.199Z,19.40
2018-12-05T07:28:35.202Z,18.40
2018-12-05T07:29:35.171Z,19.20
2018-12-05T07:30:35.164Z,16.80
2018-12-05T07:31:35.157Z,17.60
2018-12-05T07:32:35.191Z,17.60
2018-12-05T07:33:35.130Z,19.50
2018-12-05T07:34:35.121Z,17.80
2018-12-05T07:35:35.165Z,18.20
2018-12-05T07:36:35.116Z,18.70
2018-12-05T07:37:35.125Z,16.40
2018-12-05T07:38:35.074Z,16.90
2018-12-05T07:39:35.074Z,19.10
2018-12-05T07:40:35.056Z,18.20
2018-12-05T07:41:35.047Z,18.00
2018-12-05T07:42:35.033Z,18.20
2018-12-05T07:43:35.067Z,16.90
2018-12-05T07:44:35.079Z,18.90
2018-12-05T07:45:34.997Z,16.70
2018-12-05T07:46:34.989Z,16.50
2018-12-05T07:47:35.018Z,14.60
2018-12-05T07:48:34.967Z,17.20
2018-12-05T07:49:34.978Z,16.80
2018-12-05T07:50:34.944Z,15.90
2018-12-05T07:51:34.955Z,16.90
2018-12-05T07:52:34.960Z,17.60
2018-12-05T07:53:34.919Z,16.70
2018-12-05T07:54:34.902Z,17.10
2018-12-05T07:55:34.927Z,14.80
2018-12-05T07:56:34.884Z,15.10
2018-12-05T07:57:34.875Z,17.90
2018-12-05T07:58:34.874Z,15.90
2018-12-05T07:59:34.868Z,17.80
2018-12-05T08:00:34.843Z,14.80
2018-12-05T08:01:34.901Z,20.50
2018-12-05T08:02:34.822Z,16.20
2018-12-05T08:03:34.821Z,15.40
2018-12-05T08:04:34.807Z,15.90
2018-12-05T08:05:34.787Z,15.80
2018-12-05T08:06:34.787Z,17.80
2018-12-05T08:07:34.835Z,16.60
2018-12-05T08:08:34.753Z,16.10
2018-12-05T08:09:34.742Z,16.20
2018-12-05T08:10:34.738Z,17.00
2018-12-05T08:11:34.721Z,15.20
2018-12-05T08:12:34.714Z,20.10
2018-12-05T08:13:34.746Z,16.20
2018-12-05T08:14:34.736Z,17.70
2018-12-05T08:15:34.678Z,15.40
2018-12-05T08:16:34.848Z,14.00
2018-12-05T08:17:34.653Z,17.80
2018-12-05T08:18:34.656Z,16.30
2018-12-05T08:19:34.642Z,17.40
2018-12-05T08:20:34.664Z,20.20
2018-12-05T08:21:34.610Z,17.90
2018-12-05T08:22:34.614Z,15.80
2018-12-05T08:23:34.590Z,17.70
2018-12-05T08:24:34.581Z,17.90
2018-12-05T08:25:34.614Z,18.20
2018-12-05T08:26:34.613Z,19.50
2018-12-05T08:27:34.601Z,17.50
2018-12-05T08:28:34.574Z,17.80
2018-12-05T08:29:34.526Z,17.80
2018-12-05T08:30:34.527Z,17.90
2018-12-05T08:31:34.500Z,17.00
2018-12-05T08:32:34.534Z,14.90
2018-12-05T08:33:34.835Z,16.10
2018-12-05T08:34:34.482Z,19.80
2018-12-05T08:35:34.462Z,15.70
2018-12-05T08:36:34.448Z,19.00
2018-12-05T08:37:34.435Z,18.90
2018-12-05T08:38:34.439Z,18.20
2018-12-05T08:39:34.710Z,16.30
2018-12-05T08:40:34.419Z,19.30
2018-12-05T08:41:34.465Z,18.20
2018-12-05T08:42:34.400Z,16.70
2018-12-05T08:43:34.376Z,18.90
2018-12-05T08:44:34.364Z,22.60
2018-12-05T08:45:34.435Z,20.10
2018-12-05T08:46:34.351Z,19.40
2018-12-05T08:47:34.331Z,18.00
2018-12-05T08:48:34.322Z,18.90
2018-12-05T08:49:34.315Z,18.70
2018-12-05T08:50:34.360Z,15.90
2018-12-05T08:51:34.296Z,18.90
2018-12-05T08:52:34.291Z,19.30
2018-12-05T08:53:34.283Z,17.80
2018-12-05T08:54:34.301Z,17.20
2018-12-05T08:55:34.268Z,16.90
2018-12-05T08:56:34.365Z,17.30
2018-12-05T08:57:34.263Z,20.90
2018-12-05T08:58:34.253Z,17.20
2018-12-05T08:59:34.224Z,17.60
2018-12-05T09:00:34.298Z,16.90
2018-12-05T09:01:34.311Z,21.00
2018-12-05T09:02:34.227Z,15.70
2018-12-05T09:03:34.194Z,18.40
2018-12-05T09:04:34.193Z,19.20
2018-12-05T09:05:34.294Z,16.60
2018-12-05T09:06:34.141Z,17.10
2018-12-05T09:07:34.173Z,14.80
2018-12-05T09:08:34.137Z,17.30
2018-12-05T09:09:34.331Z,16.10
2018-12-05T09:10:34.108Z,19.80
2018-12-05T09:11:34.108Z,15.00
2018-12-05T09:12:34.083Z,14.60
2018-12-05T09:13:34.069Z,17.80
2018-12-05T09:14:34.067Z,15.50
2018-12-05T09:15:34.099Z,17.40
2018-12-05T09:16:34.045Z,18.00
2018-12-05T09:17:34.009Z,16.80
2018-12-05T09:18:33.998Z,16.70
2018-12-05T09:19:33.990Z,17.30
2018-12-05T09:20:33.979Z,17.40
2018-12-05T09:21:34.015Z,17.00
2018-12-05T09:22:41.014Z,15.50
2018-12-05T09:23:34.939Z,18.50
2018-12-05T09:24:33.942Z,20.30
2018-12-05T09:25:33.934Z,16.20
2018-12-05T09:26:33.952Z,19.20
2018-12-05T09:27:34.027Z,17.00
2018-12-05T09:28:33.924Z,16.60
2018-12-05T09:29:33.911Z,16.90
2018-12-05T09:30:33.884Z,19.30
2018-12-05T09:31:33.884Z,17.20
2018-12-05T09:32:33.852Z,18.40
2018-12-05T09:33:33.874Z,17.10
2018-12-05T09:34:33.827Z,17.00
2018-12-05T09:35:33.811Z,17.20
2018-12-05T09:36:33.803Z,16.30
2018-12-05T09:37:33.845Z,18.50
2018-12-05T09:38:33.782Z,19.70
2018-12-05T09:39:33.795Z,19.60
2018-12-05T09:40:33.764Z,18.30
2018-12-05T09:41:33.749Z,20.70
2018-12-05T09:42:33.777Z,19.90
2018-12-05T09:43:33.796Z,19.80
2018-12-05T09:44:33.716Z,20.50
2018-12-05T09:45:33.706Z,18.20
2018-12-05T09:46:33.696Z,17.20
2018-12-05T09:47:33.678Z,18.00
2018-12-05T09:48:33.800Z,15.10
2018-12-05T09:49:33.657Z,20.30
2018-12-05T09:50:33.646Z,18.40
2018-12-05T09:51:33.641Z,18.50
2018-12-05T09:52:33.628Z,18.90
2018-12-05T09:53:33.665Z,16.20
2018-12-05T09:54:33.605Z,16.20
2018-12-05T09:55:33.590Z,17.00
2018-12-05T09:56:33.579Z,17.10
2018-12-05T09:57:33.568Z,16.20
2018-12-05T09:58:33.615Z,15.60
2018-12-05T09:59:33.547Z,15.60
2018-12-05T10:00:34.606Z,15.60
2018-12-05T10:01:33.525Z,15.00
2018-12-05T10:02:33.518Z,17.00
2018-12-05T10:03:36.124Z,15.70
2018-12-05T10:04:33.539Z,15.40
2018-12-05T10:05:33.497Z,14.20
2018-12-05T10:06:33.473Z,16.60
2018-12-05T10:07:33.458Z,16.50
2018-12-05T10:08:33.454Z,15.40
2018-12-05T10:09:33.475Z,17.60
2018-12-05T10:10:33.438Z,18.50
2018-12-05T10:11:33.416Z,17.70
2018-12-05T10:12:33.428Z,17.90
2018-12-05T10:13:33.397Z,18.00
2018-12-05T10:14:33.428Z,19.80
2018-12-05T10:15:33.369Z,19.50
2018-12-05T10:16:33.359Z,17.50
2018-12-05T10:17:33.354Z,19.20
2018-12-05T10:18:33.356Z,20.00
2018-12-05T10:19:33.343Z,18.30
2018-12-05T10:20:33.361Z,17.40
2018-12-05T10:21:33.305Z,16.90
2018-12-05T10:22:33.347Z,16.70
2018-12-05T10:23:33.323Z,18.20
2018-12-05T10:24:33.277Z,20.00
2018-12-05T10:25:33.260Z,18.90
2018-12-05T10:26:33.274Z,19.40
2018-12-05T10:27:33.238Z,20.90
2018-12-05T10:28:33.265Z,18.50
2018-12-05T10:29:33.239Z,19.30
2018-12-05T10:30:33.220Z,18.20
2018-12-05T10:31:33.204Z,20.10
2018-12-05T10:32:33.184Z,16.00
2018-12-05T10:33:33.215Z,19.40
2018-12-05T10:34:33.284Z,18.00
2018-12-05T10:35:33.153Z,18.80
2018-12-05T10:36:33.158Z,16.90
2018-12-05T10:37:33.134Z,17.60
2018-12-05T10:38:33.277Z,16.20
2018-12-05T10:39:33.107Z,17.90
2018-12-05T10:40:33.099Z,18.10
2018-12-05T10:41:33.086Z,17.30
2018-12-05T10:42:33.085Z,18.00
2018-12-05T10:43:34.541Z,20.30
2018-12-05T10:44:33.095Z,17.10
2018-12-05T10:45:33.060Z,17.90
2018-12-05T10:46:33.072Z,17.20
2018-12-05T10:47:33.067Z,15.40
2018-12-05T10:48:33.014Z,18.30
2018-12-05T10:49:33.075Z,17.50
2018-12-05T10:50:32.988Z,17.90
2018-12-05T10:51:33.054Z,19.70
2018-12-05T10:52:33.094Z,14.80
2018-12-05T10:53:32.956Z,19.20
2018-12-05T10:54:32.946Z,16.10
2018-12-05T10:55:32.931Z,17.30
2018-12-05T10:56:32.920Z,16.10
2018-12-05T10:57:32.910Z,17.20
2018-12-05T10:58:32.946Z,16.10
2018-12-05T10:59:32.887Z,18.30
2018-12-05T11:00:32.878Z,19.60
2018-12-05T11:01:32.918Z,18.30
2018-12-05T11:02:32.862Z,18.70
2018-12-05T11:03:32.848Z,19.50
2018-12-05T11:04:32.832Z,19.40
2018-12-05T11:05:32.823Z,17.60
2018-12-05T11:06:32.813Z,18.10
2018-12-05T11:07:32.856Z,17.20
2018-12-05T11:08:32.802Z,15.90
2018-12-05T11:09:32.780Z,17.90
2018-12-05T11:10:32.820Z,18.20
2018-12-05T11:11:32.763Z,17.10
2018-12-05T11:12:32.769Z,20.10
2018-12-05T11:13:32.784Z,16.10
2018-12-05T11:14:32.721Z,15.60
2018-12-05T11:15:32.712Z,16.00
2018-12-05T11:16:32.954Z,19.20
2018-12-05T11:17:32.710Z,18.40
2018-12-05T11:18:32.931Z,19.40
2018-12-05T11:19:32.692Z,18.50
2018-12-05T11:20:32.785Z,18.10
2018-12-05T11:21:32.681Z,15.70
2018-12-05T11:22:32.644Z,17.50
2018-12-05T11:23:32.669Z,19.10
2018-12-05T11:24:32.616Z,18.70
2018-12-05T11:25:32.610Z,19.80
2018-12-05T11:26:32.630Z,17.70
2018-12-05T11:27:32.590Z,17.30
2018-12-05T11:28:32.576Z,19.70
2018-12-05T11:29:32.560Z,16.70
2018-12-05T11:30:32.556Z,19.90
2018-12-05T11:31:32.589Z,17.90
2018-12-05T11:32:32.576Z,17.00
2018-12-05T11:33:32.520Z,18.30
2018-12-05T11:34:32.530Z,18.40
2018-12-05T11:35:32.492Z,18.30
2018-12-05T11:36:32.479Z,20.20
2018-12-05T11:37:32.512Z,21.20
2018-12-05T11:38:32.463Z,20.30
2018-12-05T11:39:32.454Z,19.80
2018-12-05T11:40:32.480Z,18.20
2018-12-05T11:41:32.751Z,17.70
2018-12-05T11:42:32.415Z,17.30
2018-12-05T11:43:32.403Z,20.60
2018-12-05T11:44:32.394Z,17.50
2018-12-05T11:45:32.426Z,16.40
2018-12-05T11:46:32.383Z,20.00
2018-12-05T11:47:32.405Z,18.30
2018-12-05T11:48:32.353Z,15.80
2018-12-05T11:49:32.340Z,18.90
2018-12-05T11:50:32.330Z,20.20
2018-12-05T11:51:32.319Z,19.90
2018-12-05T11:52:32.311Z,18.20
2018-12-05T11:53:32.333Z,18.60
2018-12-05T11:54:32.280Z,17.50
2018-12-05T11:55:32.277Z,17.80
2018-12-05T11:56:32.303Z,18.80
2018-12-05T11:57:32.248Z,17.90
2018-12-05T11:58:32.269Z,21.00
2018-12-05T11:59:32.367Z,20.20
2018-12-05T12:00:32.218Z,20.80
2018-12-05T12:01:32.206Z,18.50
2018-12-05T12:02:32.193Z,16.00
2018-12-05T12:03:32.222Z,18.40
2018-12-05T12:04:32.175Z,19.20
2018-12-05T12:05:32.194Z,18.10
2018-12-05T12:06:32.160Z,17.70
2018-12-05T12:07:32.184Z,17.10
2018-12-05T12:08:32.129Z,18.70
2018-12-05T12:09:32.120Z,17.30
2018-12-05T12:10:32.104Z,17.60
2018-12-05T12:11:32.093Z,17.70
2018-12-05T12:12:32.101Z,18.80
2018-12-05T12:13:32.412Z,17.40
2018-12-05T12:14:32.058Z,21.30
2018-12-05T12:15:32.047Z,19.20
2018-12-05T12:16:32.095Z,20.10
2018-12-05T12:17:32.025Z,17.70
2018-12-05T12:18:32.019Z,17.00
2018-12-05T12:19:32.007Z,17.50
2018-12-05T12:20:31.995Z,18.20
2018-12-05T12:21:31.989Z,15.90
2018-12-05T12:22:32.016Z,17.30
2018-12-05T12:23:31.956Z,17.00
2018-12-05T12:24:34.988Z,19.50
2018-12-05T12:25:32.031Z,19.00
2018-12-05T12:26:33.424Z,21.30
2018-12-05T12:27:31.918Z,21.10
2018-12-05T12:28:31.907Z,16.30
2018-12-05T12:29:31.894Z,20.00
2018-12-05T12:30:31.974Z,17.40
2018-12-05T12:31:32.144Z,19.50
2018-12-05T12:32:31.860Z,18.30
2018-12-05T12:33:31.848Z,18.50
2018-12-05T12:34:31.837Z,18.10
2018-12-05T12:35:31.827Z,19.00
2018-12-05T12:36:31.818Z,20.30
2018-12-05T12:37:31.843Z,16.80
2018-12-05T12:38:31.794Z,18.50
2018-12-05T12:39:31.779Z,19.30
2018-12-05T12:40:31.781Z,18.10
2018-12-05T12:41:31.797Z,17.50
2018-12-05T12:42:31.752Z,19.00
2018-12-05T12:43:31.780Z,16.90
2018-12-05T12:44:31.739Z,18.20
2018-12-05T12:45:31.714Z,18.40
2018-12-05T12:46:31.705Z,20.00
2018-12-05T12:47:31.696Z,18.40
2018-12-05T12:48:31.717Z,18.00
2018-12-05T12:49:31.685Z,19.90
2018-12-05T12:50:31.659Z,15.60
2018-12-05T12:51:31.647Z,17.80
2018-12-05T12:52:31.661Z,18.90